Time;durP1;ratioP1;P1;durP2;ratioP2;P2;SDS_P1;SDS_P2;PMS_P1;PMS_P2;Temp;Humidity;BMP_temperature;BMP_pressure;BME280_temperature;BME280_humidity;BME280_pressure;Samples;Min_cycle;Max_cycle;Signal;HPM_P1;HPM_P2
2023/12/23 00:00:08;;;;;;;14.18;3.00;;;4.40;99.90;;;;;;5074510;28;20040;-73
2023/12/23 00:02:35;;;;;;;10.15;2.63;;;4.40;99.90;;;;;;5070047;28;20090;-73
2023/12/23 00:05:02;;;;;;;11.18;2.67;;;4.50;99.90;;;;;;5072731;28;20052;-71
2023/12/23 00:07:29;;;;;;;13.05;2.08;;;4.50;99.90;;;;;;5092436;28;20098;-73
2023/12/23 00:09:56;;;;;;;8.60;2.45;;;4.40;99.90;;;;;;5092166;28;20044;-73
2023/12/23 00:12:22;;;;;;;8.15;2.75;;;4.40;99.90;;;;;;5073937;28;20093;-73
2023/12/23 00:14:49;;;;;;;9.75;2.33;;;4.40;99.90;;;;;;5074164;28;20052;-72
2023/12/23 00:17:18;;;;;;;10.45;2.35;;;4.30;99.90;;;;;;5074387;28;20491;-72
2023/12/23 00:19:44;;;;;;;10.10;3.45;;;4.30;99.90;;;;;;5092479;28;20048;-73
2023/12/23 00:22:11;;;;;;;21.13;3.88;;;4.30;99.90;;;;;;5075920;28;20121;-73
2023/12/23 00:24:38;;;;;;;23.00;4.30;;;4.20;99.90;;;;;;5096754;28;20438;-73
2023/12/23 00:27:05;;;;;;;15.13;3.22;;;4.30;99.90;;;;;;5096056;28;20106;-72
2023/12/23 00:29:32;;;;;;;15.27;5.28;;;4.20;99.90;;;;;;5096671;28;20051;-72
2023/12/23 00:31:59;;;;;;;15.95;4.15;;;4.20;99.90;;;;;;5096436;28;20040;-72
2023/12/23 00:34:27;;;;;;;18.85;4.47;;;4.20;99.90;;;;;;5077795;28;20048;-72
2023/12/23 00:36:55;;;;;;;17.52;3.55;;;4.20;99.90;;;;;;5096524;28;20100;-72
2023/12/23 00:39:22;;;;;;;19.90;3.42;;;4.20;99.90;;;;;;5095703;28;20047;-72
2023/12/23 00:41:49;;;;;;;19.33;4.03;;;4.30;99.90;;;;;;5088295;28;20044;-72
2023/12/23 00:44:16;;;;;;;20.00;4.38;;;4.30;99.90;;;;;;5077395;28;20109;-72
2023/12/23 00:46:43;;;;;;;21.85;3.85;;;4.40;99.90;;;;;;5076509;28;20052;-72
2023/12/23 00:49:10;;;;;;;11.10;3.47;;;4.40;99.90;;;;;;5077032;28;20098;-72
2023/12/23 00:51:38;;;;;;;17.27;3.50;;;4.40;99.90;;;;;;5077138;28;20076;-72
2023/12/23 00:54:05;;;;;;;22.38;4.18;;;4.40;99.90;;;;;;5076949;28;20400;-72
2023/12/23 00:56:32;;;;;;;19.75;5.38;;;4.50;99.90;;;;;;5076629;28;20056;-73
2023/12/23 00:58:58;;;;;;;13.63;3.95;;;4.50;99.90;;;;;;5076920;28;20048;-73
2023/12/23 01:01:25;;;;;;;22.83;4.40;;;4.60;99.90;;;;;;5076337;28;20040;-73
2023/12/23 01:03:52;;;;;;;22.35;4.43;;;4.60;99.90;;;;;;5076859;28;20079;-72
2023/12/23 01:06:19;;;;;;;18.08;3.65;;;4.60;99.90;;;;;;5076601;28;20043;-73
2023/12/23 01:08:47;;;;;;;16.73;3.95;;;4.60;99.90;;;;;;5076455;28;20103;-73
2023/12/23 01:11:14;;;;;;;16.98;4.50;;;4.70;99.90;;;;;;5114141;28;20085;-72
2023/12/23 01:13:41;;;;;;;20.05;4.07;;;4.70;99.90;;;;;;5113902;28;20047;-72
2023/12/23 01:16:08;;;;;;;13.10;3.03;;;4.70;99.90;;;;;;5095154;28;20044;-73
2023/12/23 01:18:35;;;;;;;17.40;4.13;;;4.80;99.90;;;;;;5113749;28;20096;-72
2023/12/23 01:21:02;;;;;;;11.52;3.60;;;4.80;99.90;;;;;;5095818;28;20407;-72
2023/12/23 01:23:28;;;;;;;10.95;3.22;;;4.80;99.90;;;;;;5094923;28;20047;-72
2023/12/23 01:25:57;;;;;;;15.82;3.13;;;4.90;99.90;;;;;;5113676;28;20089;-72
2023/12/23 01:28:24;;;;;;;9.38;3.22;;;4.90;99.90;;;;;;5073681;28;20101;-72
2023/12/23 01:30:51;;;;;;;14.45;2.80;;;5.00;99.90;;;;;;5076378;28;20047;-71
2023/12/23 01:33:18;;;;;;;10.68;2.70;;;5.00;99.90;;;;;;5076153;28;20048;-72
2023/12/23 01:35:45;;;;;;;9.18;2.50;;;5.00;99.90;;;;;;5094277;28;20040;-73
2023/12/23 01:38:11;;;;;;;13.88;4.05;;;5.10;99.90;;;;;;5095209;28;20511;-73
2023/12/23 01:40:38;;;;;;;12.55;2.67;;;5.20;99.90;;;;;;5095294;28;20043;-73
2023/12/23 01:43:07;;;;;;;12.82;3.38;;;5.20;99.90;;;;;;5094876;28;20491;-74
2023/12/23 01:45:34;;;;;;;14.45;3.60;;;5.20;99.90;;;;;;5073884;28;20052;-74
2023/12/23 01:48:03;;;;;;;8.75;2.65;;;5.20;99.90;;;;;;5076083;28;20058;-73
2023/12/23 01:50:30;;;;;;;11.80;2.53;;;5.30;99.90;;;;;;5075680;28;20448;-73
2023/12/23 01:53:00;;;;;;;14.82;2.95;;;5.30;99.90;;;;;;5073781;28;20105;-74
2023/12/23 01:55:28;;;;;;;15.48;2.80;;;5.30;99.90;;;;;;5076026;28;20419;-73
2023/12/23 01:57:55;;;;;;;8.77;2.20;;;5.40;99.90;;;;;;5075355;28;20131;-73
2023/12/23 02:00:23;;;;;;;4.72;2.08;;;5.40;99.90;;;;;;5073767;28;20056;-73
2023/12/23 02:02:50;;;;;;;10.32;2.13;;;5.40;99.90;;;;;;5075967;28;20063;-72
2023/12/23 02:05:17;;;;;;;6.40;1.73;;;5.50;99.90;;;;;;5093196;28;20044;-73
2023/12/23 02:07:45;;;;;;;7.43;2.53;;;5.50;99.90;;;;;;5075920;28;20044;-72
2023/12/23 02:10:13;;;;;;;12.23;2.97;;;5.50;99.90;;;;;;5075787;28;20056;-73
2023/12/23 02:12:48;;;;;;;11.35;2.78;;;5.50;99.90;;;;;;5075147;28;20134;-72
2023/12/23 02:15:16;;;;;;;10.45;2.88;;;5.50;99.90;;;;;;5071477;28;20044;-72
2023/12/23 02:17:45;;;;;;;9.15;2.22;;;5.60;99.90;;;;;;5074747;28;20044;-73
2023/12/23 02:20:11;;;;;;;15.38;3.08;;;5.50;99.90;;;;;;5075659;28;20491;-72
2023/12/23 02:22:40;;;;;;;10.43;2.80;;;5.50;99.90;;;;;;5094744;28;20047;-73
2023/12/23 02:25:07;;;;;;;10.88;2.65;;;5.50;99.90;;;;;;5093855;28;20047;-73
2023/12/23 02:27:39;;;;;;;14.32;3.13;;;5.50;99.90;;;;;;5094437;28;20055;-73
2023/12/23 02:30:12;;;;;;;11.10;3.30;;;5.50;99.90;;;;;;5071712;28;20075;-72
2023/12/23 02:32:41;;;;;;;16.17;3.17;;;5.50;99.90;;;;;;5072972;28;20048;-73
2023/12/23 02:35:09;;;;;;;17.55;3.22;;;5.50;99.90;;;;;;5075433;28;20048;-73
2023/12/23 02:37:35;;;;;;;13.38;3.58;;;5.50;99.90;;;;;;5075246;28;20040;-72
2023/12/23 02:40:05;;;;;;;9.63;2.50;;;5.50;99.90;;;;;;5074242;28;20048;-71
2023/12/23 02:42:32;;;;;;;10.82;2.85;;;5.50;99.90;;;;;;5074969;28;20047;-71
2023/12/23 02:44:58;;;;;;;10.65;3.08;;;5.50;99.90;;;;;;5073929;28;20055;-71
2023/12/23 02:47:25;;;;;;;9.45;2.05;;;5.50;99.90;;;;;;5074360;28;20055;-71
2023/12/23 02:49:52;;;;;;;13.30;3.33;;;5.40;99.90;;;;;;5075208;28;20055;-72
2023/12/23 02:52:19;;;;;;;10.40;2.10;;;5.40;99.90;;;;;;5083909;28;20048;-72
2023/12/23 02:54:46;;;;;;;10.50;2.70;;;5.40;99.90;;;;;;5074272;28;20047;-71
2023/12/23 02:57:14;;;;;;;11.55;2.28;;;5.30;99.90;;;;;;5075060;28;20465;-72
2023/12/23 02:59:41;;;;;;;7.25;1.95;;;5.30;99.90;;;;;;5074521;28;20044;-72
2023/12/23 03:02:08;;;;;;;13.43;2.45;;;5.30;99.90;;;;;;5073542;28;20081;-72
2023/12/23 03:04:35;;;;;;;11.95;2.17;;;5.20;99.90;;;;;;5093718;28;20052;-73
2023/12/23 03:07:02;;;;;;;9.98;2.38;;;5.20;99.90;;;;;;5092967;28;20039;-73
2023/12/23 03:09:29;;;;;;;7.50;2.13;;;5.20;99.90;;;;;;5093999;28;20055;-72
2023/12/23 03:11:56;;;;;;;7.78;2.63;;;5.10;99.90;;;;;;5093898;28;20104;-72
2023/12/23 03:14:24;;;;;;;6.10;2.40;;;5.10;99.90;;;;;;5093555;28;20047;-73
2023/12/23 03:16:51;;;;;;;10.55;2.38;;;5.10;99.90;;;;;;5093770;28;20044;-73
2023/12/23 03:19:18;;;;;;;8.60;2.42;;;5.10;99.90;;;;;;5093860;28;20047;-73
2023/12/23 03:21:45;;;;;;;9.55;3.20;;;5.10;99.90;;;;;;5087341;28;20566;-74
2023/12/23 03:24:12;;;;;;;10.35;2.13;;;5.10;99.90;;;;;;5074922;28;20061;-74
2023/12/23 03:26:39;;;;;;;14.68;3.00;;;5.00;99.90;;;;;;5074540;28;20048;-74
2023/12/23 03:29:06;;;;;;;7.15;1.95;;;5.00;99.90;;;;;;5074382;28;20048;-74
2023/12/23 03:31:35;;;;;;;9.88;2.25;;;5.00;99.90;;;;;;5074610;28;20051;-73
2023/12/23 03:34:03;;;;;;;10.38;2.60;;;5.00;99.90;;;;;;5093818;28;20445;-73
2023/12/23 03:36:30;;;;;;;10.80;2.20;;;5.10;99.90;;;;;;5093182;28;20464;-74
2023/12/23 03:38:56;;;;;;;8.77;2.15;;;5.00;99.90;;;;;;5093932;28;20051;-74
2023/12/23 03:41:23;;;;;;;15.00;2.33;;;5.00;99.90;;;;;;5093333;28;20064;-73
2023/12/23 03:43:50;;;;;;;9.60;1.85;;;5.00;99.90;;;;;;5093149;28;20555;-74
2023/12/23 03:46:19;;;;;;;9.95;2.38;;;5.00;99.90;;;;;;5092969;28;20504;-74
2023/12/23 03:48:48;;;;;;;8.13;1.90;;;4.90;99.90;;;;;;5093361;28;20075;-74
2023/12/23 03:51:15;;;;;;;5.75;1.40;;;5.00;99.90;;;;;;5092919;28;20048;-74
2023/12/23 03:53:42;;;;;;;8.50;1.75;;;4.90;99.90;;;;;;5093721;28;20116;-73
2023/12/23 03:56:09;;;;;;;9.68;1.60;;;4.90;99.90;;;;;;5094730;28;20055;-74
2023/12/23 03:58:36;;;;;;;10.02;1.92;;;5.00;99.90;;;;;;5097221;28;20047;-73
2023/12/23 04:01:03;;;;;;;8.88;2.03;;;4.90;99.90;;;;;;5097421;28;20055;-73
2023/12/23 04:03:30;;;;;;;10.82;1.70;;;4.90;99.90;;;;;;5083266;28;20072;-73
2023/12/23 04:05:59;;;;;;;7.38;1.70;;;5.00;99.90;;;;;;5077689;28;20547;-73
2023/12/23 04:08:25;;;;;;;7.82;1.80;;;5.00;99.90;;;;;;5078199;28;20097;-74
2023/12/23 04:10:52;;;;;;;12.60;2.33;;;4.90;99.90;;;;;;5077563;28;20109;-73
2023/12/23 04:13:19;;;;;;;10.07;2.63;;;4.90;99.90;;;;;;5078002;28;20052;-74
2023/12/23 04:15:46;;;;;;;9.55;2.40;;;5.00;99.90;;;;;;5077910;28;20399;-72
2023/12/23 04:18:13;;;;;;;7.38;2.05;;;4.90;99.90;;;;;;5076620;28;20052;-74
2023/12/23 04:20:40;;;;;;;7.97;2.08;;;4.90;99.90;;;;;;5077876;28;20066;-72
2023/12/23 04:23:09;;;;;;;6.97;2.10;;;4.90;99.90;;;;;;5096996;28;20047;-73
2023/12/23 04:25:36;;;;;;;10.02;1.98;;;4.90;99.90;;;;;;5096034;28;20048;-72
2023/12/23 04:28:03;;;;;;;6.68;1.88;;;4.90;99.90;;;;;;5096946;28;20532;-73
2023/12/23 04:30:30;;;;;;;6.50;1.55;;;4.90;99.90;;;;;;5096732;28;20121;-73
2023/12/23 04:32:57;;;;;;;7.05;2.42;;;5.00;99.90;;;;;;5096258;28;20052;-73
2023/12/23 04:35:24;;;;;;;8.02;1.75;;;4.90;99.90;;;;;;5096641;28;20047;-74
2023/12/23 04:37:51;;;;;;;6.72;1.88;;;4.90;99.90;;;;;;5096747;28;20047;-72
2023/12/23 04:40:19;;;;;;;6.75;1.52;;;4.90;99.90;;;;;;5096104;28;20044;-72
2023/12/23 04:42:46;;;;;;;6.20;1.70;;;5.00;99.90;;;;;;5096487;28;20047;-73
2023/12/23 04:45:13;;;;;;;6.47;2.13;;;4.90;99.90;;;;;;5095781;28;20051;-73
2023/12/23 04:47:40;;;;;;;7.60;1.60;;;5.00;99.90;;;;;;5096088;28;20040;-72
2023/12/23 04:50:08;;;;;;;7.25;1.70;;;5.00;99.90;;;;;;5096565;28;20089;-73
2023/12/23 04:52:35;;;;;;;8.40;2.20;;;5.00;99.90;;;;;;5095903;28;20048;-72
2023/12/23 04:55:05;;;;;;;13.75;2.83;;;5.00;99.90;;;;;;5096352;28;20445;-73
2023/12/23 04:57:34;;;;;;;8.13;1.97;;;5.10;99.90;;;;;;5114527;28;20483;-72
2023/12/23 05:00:01;;;;;;;5.00;1.52;;;5.00;99.90;;;;;;5095463;28;20090;-72
2023/12/23 05:02:27;;;;;;;7.93;2.13;;;5.00;99.90;;;;;;5093876;28;20052;-73
2023/12/23 05:04:54;;;;;;;7.07;1.60;;;5.10;99.90;;;;;;5077133;28;20446;-72
2023/12/23 05:07:21;;;;;;;7.65;2.15;;;5.10;99.90;;;;;;5075538;28;20504;-72
2023/12/23 05:09:48;;;;;;;6.13;2.17;;;5.10;99.90;;;;;;5076769;28;20089;-72
2023/12/23 05:12:15;;;;;;;4.70;1.73;;;5.10;99.90;;;;;;5076954;28;20450;-73
2023/12/23 05:14:43;;;;;;;9.80;1.85;;;5.00;99.90;;;;;;5076300;28;20048;-74
2023/12/23 05:17:10;;;;;;;4.65;1.70;;;5.10;99.90;;;;;;5074920;28;20458;-73
2023/12/23 05:19:40;;;;;;;5.35;1.63;;;5.10;99.90;;;;;;5076477;28;20561;-73
2023/12/23 05:22:07;;;;;;;6.75;2.00;;;5.10;99.90;;;;;;5075999;28;20063;-73
2023/12/23 05:24:34;;;;;;;6.07;1.70;;;5.10;99.90;;;;;;5076706;28;20048;-73
2023/12/23 05:27:01;;;;;;;5.75;1.75;;;5.10;99.90;;;;;;5075402;28;20044;-72
2023/12/23 05:29:28;;;;;;;4.68;1.52;;;5.10;99.90;;;;;;5095102;28;20055;-72
2023/12/23 05:31:56;;;;;;;7.65;2.08;;;5.20;99.90;;;;;;5095447;28;20054;-73
2023/12/23 05:34:23;;;;;;;8.30;1.90;;;5.10;99.90;;;;;;5095724;28;20047;-73
2023/12/23 05:36:50;;;;;;;4.85;1.70;;;5.10;99.90;;;;;;5095041;28;20052;-72
2023/12/23 05:39:16;;;;;;;6.00;1.67;;;5.10;99.90;;;;;;5113708;28;20048;-73
2023/12/23 05:41:43;;;;;;;6.80;2.33;;;5.10;99.90;;;;;;5094937;28;20055;-73
2023/12/23 05:44:10;;;;;;;6.72;1.80;;;5.10;99.90;;;;;;5095123;28;20044;-73
2023/12/23 05:46:36;;;;;;;5.50;1.75;;;5.10;99.90;;;;;;5065737;28;20052;-72
2023/12/23 05:49:04;;;;;;;8.02;1.30;;;5.20;99.90;;;;;;5071095;28;20462;-72
2023/12/23 05:51:31;;;;;;;5.80;1.48;;;5.10;99.90;;;;;;5071048;28;20048;-73
2023/12/23 05:53:58;;;;;;;7.38;1.80;;;5.10;99.90;;;;;;5074244;28;20051;-73
2023/12/23 05:56:25;;;;;;;5.63;1.65;;;5.10;99.90;;;;;;5070249;28;20040;-73
2023/12/23 05:58:52;;;;;;;6.45;2.20;;;5.10;99.90;;;;;;5093061;28;20044;-73
2023/12/23 06:01:19;;;;;;;7.28;2.03;;;5.00;99.90;;;;;;5074904;28;20058;-73
2023/12/23 06:03:45;;;;;;;3.60;1.40;;;5.00;99.90;;;;;;5073950;28;20109;-73
2023/12/23 06:06:14;;;;;;;5.90;1.80;;;5.00;99.90;;;;;;5073222;28;20045;-72
2023/12/23 06:08:41;;;;;;;2.92;1.10;;;5.10;99.90;;;;;;5074760;28;20060;-73
2023/12/23 06:11:08;;;;;;;7.25;1.50;;;5.00;99.90;;;;;;5092386;28;20043;-72
2023/12/23 06:13:35;;;;;;;6.85;1.75;;;5.00;99.90;;;;;;5075075;28;20123;-74
2023/12/23 06:16:05;;;;;;;6.72;1.70;;;5.00;99.90;;;;;;5074950;28;20047;-73
2023/12/23 06:18:33;;;;;;;4.20;1.20;;;4.90;99.90;;;;;;5070169;28;20550;-73
2023/12/23 06:21:00;;;;;;;3.85;1.20;;;4.90;99.90;;;;;;5074666;28;20048;-73
2023/12/23 06:23:29;;;;;;;5.65;1.33;;;4.90;99.90;;;;;;5072593;28;20052;-73
2023/12/23 06:25:56;;;;;;;5.75;1.30;;;4.90;99.90;;;;;;5074260;28;20446;-72
2023/12/23 06:28:22;;;;;;;6.47;1.10;;;4.90;99.90;;;;;;5072200;28;20052;-73
2023/12/23 06:30:49;;;;;;;3.03;1.17;;;4.80;99.90;;;;;;5073492;28;20064;-72
2023/12/23 06:33:16;;;;;;;6.78;1.90;;;4.80;99.90;;;;;;5070896;28;20048;-73
2023/12/23 06:35:43;;;;;;;3.58;1.17;;;4.70;99.90;;;;;;5074278;28;20090;-75
2023/12/23 06:38:10;;;;;;;2.85;0.90;;;4.80;99.90;;;;;;5073519;28;20048;-74
2023/12/23 06:40:38;;;;;;;3.38;0.82;;;4.80;99.90;;;;;;5074381;28;20105;-74
2023/12/23 06:43:05;;;;;;;2.00;0.80;;;4.70;99.90;;;;;;5066014;28;20492;-74
2023/12/23 06:45:32;;;;;;;2.22;0.70;;;4.70;99.90;;;;;;5074434;28;20568;-74
2023/12/23 06:47:59;;;;;;;3.38;0.90;;;4.60;99.90;;;;;;5092431;28;20044;-74
2023/12/23 06:50:28;;;;;;;4.03;1.02;;;4.60;99.90;;;;;;5074873;28;20541;-73
2023/12/23 06:52:55;;;;;;;2.95;0.93;;;4.60;99.90;;;;;;5074156;28;20040;-72
2023/12/23 06:55:22;;;;;;;1.63;0.70;;;4.60;99.90;;;;;;5074543;28;20097;-75
2023/12/23 06:57:52;;;;;;;2.13;0.70;;;4.60;99.90;;;;;;5074431;28;20097;-72
2023/12/23 07:00:19;;;;;;;7.55;0.90;;;4.60;99.90;;;;;;5073727;28;20051;-74
2023/12/23 07:02:48;;;;;;;1.70;0.60;;;4.60;99.90;;;;;;5073911;28;20475;-73
2023/12/23 07:05:15;;;;;;;2.10;0.80;;;4.50;99.90;;;;;;5074753;28;20381;-74
2023/12/23 07:07:43;;;;;;;1.23;0.60;;;4.60;99.90;;;;;;5073286;28;20044;-72
2023/12/23 07:10:10;;;;;;;2.33;0.80;;;4.60;99.90;;;;;;5074419;28;20056;-72
2023/12/23 07:12:37;;;;;;;2.20;0.80;;;4.50;99.90;;;;;;5074158;28;20101;-72
2023/12/23 07:15:07;;;;;;;6.85;1.42;;;4.60;99.90;;;;;;5074351;28;20557;-75
2023/12/23 07:17:34;;;;;;;2.17;1.03;;;4.60;99.90;;;;;;5067605;28;20084;-75
2023/12/23 07:20:01;;;;;;;2.10;0.80;;;4.60;99.90;;;;;;5070815;28;20051;-72
2023/12/23 07:22:28;;;;;;;1.83;0.70;;;4.60;99.90;;;;;;5075593;28;20056;-73
2023/12/23 07:24:57;;;;;;;2.17;0.75;;;4.50;99.90;;;;;;5088265;28;20044;-73
2023/12/23 07:27:24;;;;;;;1.13;0.65;;;4.70;99.90;;;;;;5092578;28;20549;-73
2023/12/23 07:29:50;;;;;;;1.02;0.60;;;4.60;99.90;;;;;;5093130;28;20047;-72
2023/12/23 07:32:19;;;;;;;2.00;0.68;;;4.60;99.90;;;;;;5096986;28;20047;-73
2023/12/23 07:34:45;;;;;;;1.70;0.65;;;4.60;99.90;;;;;;5096864;28;20052;-72
2023/12/23 07:37:12;;;;;;;3.22;0.68;;;4.60;99.90;;;;;;5097145;28;20089;-73
2023/12/23 07:39:39;;;;;;;1.52;0.75;;;4.70;99.90;;;;;;5086492;28;20048;-72
2023/12/23 07:42:06;;;;;;;1.83;0.60;;;4.70;99.90;;;;;;5091486;28;20044;-74
2023/12/23 07:44:36;;;;;;;1.67;0.80;;;4.60;99.90;;;;;;5082021;28;20116;-72
2023/12/23 07:47:04;;;;;;;2.05;0.88;;;4.70;99.90;;;;;;5076961;28;20097;-73
2023/12/23 07:49:32;;;;;;;5.32;1.33;;;4.60;99.90;;;;;;5084221;28;20429;-73
2023/12/23 07:51:59;;;;;;;1.85;0.80;;;4.70;99.90;;;;;;5095121;28;20052;-73
2023/12/23 07:54:26;;;;;;;2.83;0.90;;;4.70;99.90;;;;;;5075542;28;20136;-73
2023/12/23 07:56:53;;;;;;;2.28;1.20;;;4.70;99.90;;;;;;5076011;28;20404;-73
2023/12/23 07:59:20;;;;;;;2.92;1.10;;;4.70;99.90;;;;;;5077440;28;20040;-73
2023/12/23 08:01:47;;;;;;;2.85;1.05;;;4.60;99.90;;;;;;5077646;28;20082;-73
2023/12/23 08:04:14;;;;;;;3.25;0.90;;;4.70;99.90;;;;;;5076235;28;20541;-73
2023/12/23 08:06:43;;;;;;;2.97;0.95;;;4.60;99.90;;;;;;5076979;28;20416;-73
2023/12/23 08:09:10;;;;;;;2.22;1.00;;;4.60;99.90;;;;;;5077382;28;20495;-72
2023/12/23 08:11:37;;;;;;;4.18;1.30;;;4.70;99.90;;;;;;5077281;28;20538;-73
2023/12/23 08:14:04;;;;;;;2.25;1.13;;;4.80;99.90;;;;;;5079524;28;20051;-73
2023/12/23 08:16:31;;;;;;;2.58;1.00;;;4.80;99.90;;;;;;5077635;28;20043;-73
2023/12/23 08:18:58;;;;;;;2.72;0.88;;;4.70;99.90;;;;;;5075859;28;20097;-73
2023/12/23 08:21:25;;;;;;;3.22;1.30;;;4.80;99.90;;;;;;5072966;28;20100;-72
2023/12/23 08:23:53;;;;;;;1.88;1.02;;;4.80;99.90;;;;;;5093400;28;20048;-73
2023/12/23 08:26:20;;;;;;;1.60;0.90;;;4.80;99.90;;;;;;5074790;28;20449;-73
2023/12/23 08:28:47;;;;;;;3.78;1.10;;;4.90;99.90;;;;;;5076513;28;20040;-73
2023/12/23 08:31:14;;;;;;;1.80;1.10;;;4.90;99.90;;;;;;5071949;28;20044;-73
2023/12/23 08:33:40;;;;;;;1.73;1.08;;;4.90;99.90;;;;;;5075080;28;20048;-73
2023/12/23 08:36:08;;;;;;;3.15;1.10;;;4.90;99.90;;;;;;5092502;28;20510;-73
2023/12/23 08:38:35;;;;;;;1.73;0.95;;;4.90;99.90;;;;;;5075482;28;20396;-73
2023/12/23 08:41:04;;;;;;;4.55;1.33;;;4.80;99.90;;;;;;5076580;28;20043;-72
2023/12/23 08:43:32;;;;;;;3.25;1.20;;;4.80;99.90;;;;;;5079288;28;20561;-72
2023/12/23 08:45:59;;;;;;;3.10;1.50;;;4.90;99.90;;;;;;5080737;28;20141;-74
2023/12/23 08:48:26;;;;;;;4.22;1.98;;;4.90;99.90;;;;;;5075853;28;20090;-72
2023/12/23 08:50:53;;;;;;;1.95;1.15;;;4.90;99.90;;;;;;5075709;28;20097;-73
2023/12/23 08:53:19;;;;;;;2.08;1.30;;;6.00;99.90;;;;;;5074727;28;20109;-75
2023/12/23 08:55:46;;;;;;;2.17;1.30;;;4.90;99.90;;;;;;5074753;28;20044;-74
2023/12/23 08:58:15;;;;;;;2.15;1.10;;;4.90;99.90;;;;;;5088076;28;20109;-75
2023/12/23 09:00:42;;;;;;;2.33;1.30;;;4.90;99.90;;;;;;5075539;28;20470;-73
2023/12/23 09:03:09;;;;;;;2.55;1.17;;;4.90;99.90;;;;;;5076619;28;20138;-73
2023/12/23 09:05:35;;;;;;;2.72;1.33;;;5.10;99.90;;;;;;5075286;28;20052;-73
2023/12/23 09:08:02;;;;;;;3.42;1.20;;;5.00;99.90;;;;;;5076322;28;20040;-72
2023/12/23 09:10:29;;;;;;;2.83;1.30;;;5.10;99.90;;;;;;5076789;28;20075;-73
2023/12/23 09:12:56;;;;;;;1.55;0.90;;;5.10;99.90;;;;;;5075891;28;20056;-72
2023/12/23 09:15:24;;;;;;;2.97;1.13;;;5.10;99.90;;;;;;5075595;28;20052;-72
2023/12/23 09:17:51;;;;;;;2.10;1.10;;;5.20;99.90;;;;;;5075911;28;20048;-72
2023/12/23 09:20:18;;;;;;;2.15;1.15;;;5.20;99.90;;;;;;5076020;28;20051;-72
2023/12/23 09:22:45;;;;;;;1.58;0.80;;;5.20;99.90;;;;;;5075259;28;20500;-72
2023/12/23 09:25:12;;;;;;;2.05;0.90;;;5.20;99.90;;;;;;5095850;28;20159;-71
2023/12/23 09:27:39;;;;;;;4.18;1.30;;;5.20;99.90;;;;;;5094677;28;20093;-72
2023/12/23 09:30:07;;;;;;;2.85;1.35;;;5.30;99.90;;;;;;5095463;28;20072;-73
2023/12/23 09:32:35;;;;;;;11.18;2.60;;;5.20;99.90;;;;;;5094964;28;20051;-73
2023/12/23 09:35:02;;;;;;;5.43;2.03;;;5.30;99.90;;;;;;5094792;28;20051;-72
2023/12/23 09:37:29;;;;;;;3.65;1.77;;;5.20;99.90;;;;;;5094886;28;20040;-72
2023/12/23 09:39:58;;;;;;;5.60;2.10;;;5.40;99.90;;;;;;5068638;28;20272;-73
2023/12/23 09:42:26;;;;;;;21.70;4.53;;;5.30;99.90;;;;;;5068740;28;20082;-73
2023/12/23 09:44:53;;;;;;;5.65;1.85;;;5.30;99.90;;;;;;5071640;28;20094;-73
2023/12/23 09:47:20;;;;;;;4.85;1.83;;;5.30;99.90;;;;;;5073047;28;20040;-71
2023/12/23 09:49:48;;;;;;;2.10;1.17;;;5.30;99.90;;;;;;5073866;28;20104;-71
2023/12/23 09:52:15;;;;;;;2.38;1.30;;;5.40;99.90;;;;;;5075088;28;20112;-73
2023/12/23 09:54:47;;;;;;;1.88;1.20;;;5.30;99.90;;;;;;5082317;28;20039;-72
2023/12/23 09:57:15;;;;;;;3.38;1.70;;;5.30;99.90;;;;;;5074484;28;20051;-72
2023/12/23 09:59:41;;;;;;;3.17;1.25;;;5.40;99.90;;;;;;5076202;28;20122;-72
2023/12/23 10:02:08;;;;;;;2.45;1.30;;;5.30;99.90;;;;;;5079274;28;20059;-73
2023/12/23 10:04:35;;;;;;;4.45;1.42;;;5.30;99.90;;;;;;5082054;28;20056;-73
2023/12/23 10:07:04;;;;;;;4.40;1.45;;;5.30;99.90;;;;;;5069770;28;20049;-73
2023/12/23 10:09:32;;;;;;;2.20;1.50;;;5.30;99.90;;;;;;5070457;28;20113;-73
2023/12/23 10:11:59;;;;;;;2.30;1.20;;;5.40;99.90;;;;;;5074380;28;20147;-73
2023/12/23 10:14:26;;;;;;;1.95;1.25;;;5.30;99.90;;;;;;5072007;28;20143;-72
2023/12/23 10:16:53;;;;;;;2.33;1.23;;;5.40;99.90;;;;;;5073735;28;20047;-72
2023/12/23 10:19:21;;;;;;;2.08;1.40;;;6.30;99.90;;;;;;5071224;28;20497;-73
2023/12/23 10:21:49;;;;;;;3.10;1.40;;;5.40;99.90;;;;;;5081334;28;20047;-75
2023/12/23 10:24:17;;;;;;;2.10;1.23;;;5.40;99.90;;;;;;5072306;28;20139;-75
2023/12/23 10:26:45;;;;;;;1.65;0.90;;;5.40;99.90;;;;;;5074559;28;20048;-74
2023/12/23 10:29:15;;;;;;;2.08;1.17;;;5.50;99.90;;;;;;5071393;28;20045;-75
2023/12/23 10:31:45;;;;;;;2.17;1.10;;;5.50;99.90;;;;;;5073634;28;20052;-75
2023/12/23 10:34:14;;;;;;;1.93;1.07;;;5.40;99.90;;;;;;5074125;28;20051;-75
2023/12/23 10:36:43;;;;;;;2.58;1.40;;;5.70;99.90;;;;;;5073892;28;20519;-73
2023/12/23 10:39:16;;;;;;;3.08;1.58;;;5.50;99.90;;;;;;5074733;28;20055;-74
2023/12/23 10:42:03;;;;;;;2.40;1.38;;;5.50;99.90;;;;;;5073040;28;20052;-73
2023/12/23 10:44:32;;;;;;;1.92;1.17;;;5.60;99.90;;;;;;5074199;28;20066;-74
2023/12/23 10:46:59;;;;;;;1.40;0.90;;;5.50;99.90;;;;;;5075052;28;20396;-74
2023/12/23 10:49:27;;;;;;;1.92;0.88;;;5.60;99.90;;;;;;5072553;28;20048;-73
2023/12/23 10:51:55;;;;;;;2.38;1.02;;;5.60;99.90;;;;;;5092436;28;20044;-74
2023/12/23 10:54:24;;;;;;;1.70;1.00;;;5.60;99.90;;;;;;5083011;28;20083;-75
2023/12/23 10:56:54;;;;;;;1.60;0.80;;;5.60;99.90;;;;;;5094219;28;20131;-72
2023/12/23 10:59:21;;;;;;;2.10;0.95;;;5.60;99.90;;;;;;5093469;28;20565;-74
2023/12/23 11:01:48;;;;;;;1.88;0.90;;;5.70;99.90;;;;;;5094103;28;20469;-74
2023/12/23 11:04:15;;;;;;;1.80;0.90;;;5.80;99.90;;;;;;5093885;28;20142;-73
2023/12/23 11:06:46;;;;;;;2.33;0.80;;;5.60;99.90;;;;;;5071542;28;20044;-74
2023/12/23 11:09:14;;;;;;;1.70;0.93;;;5.60;99.90;;;;;;5073025;28;20086;-73
2023/12/23 11:11:43;;;;;;;1.50;0.80;;;5.70;99.90;;;;;;5072912;28;20047;-73
2023/12/23 11:14:11;;;;;;;2.53;1.42;;;5.70;99.90;;;;;;5073354;28;20075;-74
2023/12/23 11:16:39;;;;;;;1.73;1.08;;;5.80;99.90;;;;;;5073793;28;20053;-74
2023/12/23 11:19:06;;;;;;;2.00;1.10;;;5.70;99.90;;;;;;5074251;28;20602;-73
2023/12/23 11:21:34;;;;;;;2.55;1.13;;;5.80;99.90;;;;;;5100782;28;20104;-74
2023/12/23 11:24:02;;;;;;;2.45;1.17;;;5.70;99.90;;;;;;5090899;28;20465;-74
2023/12/23 11:26:42;;;;;;;2.47;1.27;;;5.80;99.90;;;;;;5073831;28;20101;-74
2023/12/23 11:29:13;;;;;;;2.92;1.60;;;5.80;99.90;;;;;;5091791;28;20054;-74
2023/12/23 11:31:40;;;;;;;2.20;1.08;;;5.80;99.90;;;;;;5072810;28;20496;-74
2023/12/23 11:34:15;;;;;;;1.70;0.98;;;5.80;99.90;;;;;;5073550;28;20446;-74
2023/12/23 11:36:44;;;;;;;1.70;0.90;;;5.90;99.90;;;;;;5078756;28;20044;-74
2023/12/23 11:39:12;;;;;;;2.08;0.90;;;5.90;99.90;;;;;;5073079;28;20064;-74
2023/12/23 11:41:41;;;;;;;1.50;0.80;;;6.00;99.90;;;;;;5070258;28;20565;-74
2023/12/23 11:44:12;;;;;;;1.00;0.70;;;6.30;99.90;;;;;;5071189;28;20078;-74
2023/12/23 11:46:40;;;;;;;1.70;0.95;;;5.90;99.90;;;;;;5073109;28;20075;-74
2023/12/23 11:49:09;;;;;;;1.83;0.90;;;6.10;99.90;;;;;;5072463;28;20419;-73
2023/12/23 11:51:38;;;;;;;1.88;0.98;;;6.00;99.90;;;;;;5071684;28;20147;-74
2023/12/23 11:54:05;;;;;;;1.52;0.90;;;6.00;99.90;;;;;;5073868;28;20451;-73
2023/12/23 11:56:32;;;;;;;1.50;0.90;;;5.90;99.90;;;;;;5068033;28;20044;-73
2023/12/23 11:59:00;;;;;;;28.75;3.60;;;6.00;99.90;;;;;;5072445;28;20105;-73
2023/12/23 12:01:31;;;;;;;8.98;2.78;;;6.00;99.90;;;;;;5069993;28;20052;-75
2023/12/23 12:03:58;;;;;;;7.78;1.67;;;6.10;99.90;;;;;;5089288;28;20161;-74
2023/12/23 12:06:25;;;;;;;3.03;1.02;;;6.10;99.90;;;;;;5073485;28;20052;-72
2023/12/23 12:08:53;;;;;;;2.42;1.00;;;6.10;99.90;;;;;;5069369;28;20068;-72
2023/12/23 12:11:20;;;;;;;2.40;1.05;;;6.10;99.90;;;;;;5083966;28;20062;-72
2023/12/23 12:13:48;;;;;;;2.78;1.13;;;6.10;99.90;;;;;;5072773;28;20154;-73
2023/12/23 12:16:15;;;;;;;2.30;1.20;;;6.10;99.90;;;;;;5073454;28;20119;-73
2023/12/23 12:18:43;;;;;;;2.20;1.25;;;5.30;99.90;;;;;;5094859;28;20052;-72
2023/12/23 12:21:10;;;;;;;2.08;0.88;;;6.10;99.90;;;;;;5077360;28;20051;-74
2023/12/23 12:23:38;;;;;;;2.03;1.23;;;6.20;99.90;;;;;;5075719;28;20048;-73
2023/12/23 12:26:05;;;;;;;2.45;1.30;;;6.20;99.90;;;;;;5074657;28;20385;-72
2023/12/23 12:28:32;;;;;;;2.20;1.20;;;6.20;99.90;;;;;;5075939;28;20409;-73
2023/12/23 12:31:10;;;;;;;1.75;1.10;;;6.20;99.90;;;;;;5075709;28;20052;-72
2023/12/23 12:33:40;;;;;;;3.08;1.30;;;6.20;99.90;;;;;;5073916;28;20098;-72
2023/12/23 12:36:11;;;;;;;;;;;6.20;99.90;;;;;;5078466;28;20047;-72
2023/12/23 12:38:38;;;;;;;2.00;1.33;;;6.10;99.90;;;;;;5072501;28;19969;-71
2023/12/23 12:41:07;;;;;;;1.80;1.10;;;6.10;99.90;;;;;;5073137;28;20435;-71
2023/12/23 12:43:36;;;;;;;3.30;1.50;;;6.20;99.90;;;;;;5073203;28;20078;-71
2023/12/23 12:46:03;;;;;;;2.42;1.50;;;6.20;99.90;;;;;;5075960;28;20084;-72
2023/12/23 12:48:30;;;;;;;2.40;1.38;;;6.20;99.90;;;;;;5070952;28;20086;-72
2023/12/23 12:50:57;;;;;;;2.47;1.60;;;6.20;99.90;;;;;;5073157;28;20109;-72
2023/12/23 12:53:26;;;;;;;3.55;1.27;;;6.20;99.90;;;;;;5072940;28;20444;-72
2023/12/23 12:55:52;;;;;;;2.45;1.40;;;6.30;99.90;;;;;;5076174;28;20523;-73